createdAt,value
2018-04-01T00:01:53.248Z,15.77
2018-04-01T00:04:22.256Z,16.10
2018-04-01T00:06:51.271Z,15.87
2018-04-01T00:09:20.287Z,17.77
2018-04-01T00:11:49.325Z,17.83
2018-04-01T00:14:18.345Z,18.00
2018-04-01T00:16:47.380Z,19.23
2018-04-01T00:19:16.393Z,18.43
2018-04-01T00:21:45.421Z,17.53
2018-04-01T00:24:14.438Z,17.03
2018-04-01T00:26:43.464Z,17.77
2018-04-01T00:29:12.476Z,17.80
2018-04-01T00:31:41.497Z,18.40
2018-04-01T00:34:10.536Z,17.17
2018-04-01T00:36:39.544Z,16.53
2018-04-01T00:39:08.577Z,17.13
2018-04-01T00:41:37.592Z,18.83
2018-04-01T00:44:06.613Z,16.60
2018-04-01T00:46:35.643Z,14.87
2018-04-01T00:49:04.669Z,15.53
2018-04-01T00:51:33.697Z,15.10
2018-04-01T00:54:02.723Z,15.33
2018-04-01T00:56:31.741Z,14.80
2018-04-01T00:59:00.786Z,15.23
2018-04-01T01:04:34.326Z,14.50
2018-04-01T01:07:03.414Z,14.20
2018-04-01T01:09:32.511Z,14.50
2018-04-01T01:12:01.546Z,15.27
2018-04-01T01:14:30.657Z,14.80
2018-04-01T01:16:59.709Z,15.13
2018-04-01T01:19:28.902Z,14.80
2018-04-01T01:21:58.155Z,14.73
2018-04-01T01:24:27.224Z,14.20
2018-04-01T01:32:56.235Z,14.47
2018-04-01T01:35:25.335Z,14.67
2018-04-01T01:37:54.423Z,14.13
2018-04-01T01:40:23.528Z,14.90
2018-04-01T01:42:52.625Z,15.17
2018-04-01T01:45:21.665Z,16.10
2018-04-01T01:47:50.778Z,15.90
2018-04-01T01:50:25.204Z,15.50
2018-04-01T01:52:56.822Z,15.17
2018-04-01T01:55:32.691Z,15.10
2018-04-01T01:58:02.319Z,14.13
2018-04-01T02:00:33.976Z,14.30
2018-04-01T02:03:03.465Z,13.87
2018-04-01T02:05:35.532Z,13.97
2018-04-01T02:08:08.155Z,13.73
2018-04-01T02:10:42.483Z,14.63
2018-04-01T02:13:14.784Z,13.83
2018-04-01T02:15:47.383Z,12.93
2018-04-01T02:18:17.350Z,14.77
2018-04-01T02:20:48.523Z,12.53
2018-04-01T02:25:54.727Z,12.43
2018-04-01T02:28:25.492Z,13.33
2018-04-01T02:30:56.440Z,13.13
2018-04-01T02:38:59.744Z,13.20
2018-04-01T02:41:31.784Z,13.03
2018-04-01T02:46:39.277Z,13.50
2018-04-01T02:49:11.673Z,13.87
2018-04-01T02:56:50.154Z,15.27
2018-04-01T02:59:23.879Z,15.47
2018-04-01T03:10:30.102Z,15.30
2018-04-01T03:15:34.485Z,15.77
2018-04-01T03:18:04.684Z,15.17
2018-04-01T03:20:35.854Z,16.20
2018-04-01T03:23:06.570Z,16.73
2018-04-01T03:25:37.135Z,15.33
2018-04-01T03:28:06.723Z,15.23
2018-04-01T03:30:36.493Z,16.67
2018-04-01T03:33:06.810Z,15.77
2018-04-01T03:35:37.104Z,16.07
2018-04-01T03:38:06.990Z,16.10
2018-04-01T03:40:37.485Z,15.57
2018-04-01T03:43:07.282Z,15.97
2018-04-01T03:45:38.302Z,16.83
2018-04-01T03:48:08.584Z,16.87
2018-04-01T03:50:39.710Z,16.73
2018-04-01T03:53:10.575Z,16.37
2018-04-01T03:55:41.969Z,16.57
2018-04-01T03:58:11.569Z,15.70
2018-04-01T04:00:42.688Z,15.83
2018-04-01T04:03:14.051Z,16.00
2018-04-01T04:05:51.633Z,15.67
2018-04-01T04:08:25.585Z,15.27
2018-04-01T04:10:56.355Z,15.80
2018-04-01T04:18:42.257Z,17.27
2018-04-01T04:21:14.191Z,16.20
2018-04-01T04:23:44.791Z,17.23
2018-04-01T04:26:16.524Z,16.70
2018-04-01T04:28:50.625Z,16.83
2018-04-01T04:31:20.192Z,16.83
2018-04-01T04:36:24.749Z,17.03
2018-04-01T04:38:53.878Z,17.03
2018-04-01T04:41:23.179Z,17.13
2018-04-01T04:43:52.961Z,17.43
2018-04-01T04:46:22.402Z,16.90
2018-04-01T04:48:51.830Z,18.07
2018-04-01T04:51:20.993Z,17.57
2018-04-01T04:53:50.192Z,17.90
2018-04-01T04:56:19.496Z,17.93
2018-04-01T04:58:48.745Z,16.50
2018-04-01T05:01:18.174Z,17.43
2018-04-01T05:03:47.366Z,17.43
2018-04-01T05:06:16.549Z,17.60
2018-04-01T05:11:36.945Z,16.77
2018-04-01T05:14:06.312Z,16.53
2018-04-01T05:16:35.482Z,16.27
2018-04-01T05:19:04.781Z,17.00
2018-04-01T05:21:34.473Z,16.50
2018-04-01T05:24:03.788Z,18.07
2018-04-01T05:26:33.188Z,18.23
2018-04-01T05:29:02.545Z,15.77
2018-04-01T05:31:31.954Z,16.33
2018-04-01T05:34:01.380Z,17.03
2018-04-01T05:36:30.642Z,18.10
2018-04-01T05:39:00.117Z,18.50
2018-04-01T05:41:29.368Z,17.40
2018-04-01T05:43:58.699Z,18.30
2018-04-01T05:46:28.158Z,17.03
2018-04-01T05:48:57.619Z,17.03
2018-04-01T05:51:26.976Z,17.43
2018-04-01T05:53:56.560Z,17.80
2018-04-01T05:56:25.669Z,17.10
2018-04-01T05:58:56.799Z,16.47
2018-04-01T06:01:26.236Z,16.17
2018-04-01T06:09:31.056Z,14.17
2018-04-01T06:44:08.104Z,12.70
2018-04-01T06:46:43.697Z,12.27
2018-04-01T06:49:19.857Z,12.77
2018-04-01T06:51:57.939Z,13.10
2018-04-01T09:55:59.541Z,7.07
2018-04-01T09:58:28.549Z,5.90
2018-04-01T10:01:00.760Z,5.93
2018-04-01T10:03:30.012Z,5.97
2018-04-01T10:05:59.280Z,6.20
2018-04-01T10:08:28.735Z,5.07
2018-04-01T10:10:58.216Z,5.43
2018-04-01T10:13:27.666Z,5.43
2018-04-01T10:52:25.830Z,5.10
2018-04-01T10:56:41.457Z,7.00
2018-04-01T10:59:09.404Z,6.90
2018-04-01T11:01:37.383Z,7.32
2018-04-01T11:04:05.361Z,6.95
2018-04-01T11:06:33.334Z,6.27
2018-04-01T11:09:01.324Z,6.20
2018-04-01T11:11:29.334Z,6.40
2018-04-01T11:13:58.025Z,5.90
2018-04-01T11:16:25.996Z,6.67
2018-04-01T11:18:53.963Z,6.00
2018-04-01T11:21:21.944Z,5.47
2018-04-01T11:34:29.128Z,5.47
2018-04-01T11:36:57.126Z,5.83
2018-04-01T11:53:06.862Z,4.90
2018-04-01T11:56:17.952Z,4.97
2018-04-01T12:00:07.613Z,4.50
2018-04-01T12:02:35.621Z,4.75
2018-04-01T12:06:28.432Z,4.40
2018-04-01T12:14:57.867Z,4.07
2018-04-01T12:15:11.620Z,4.55
2018-04-01T12:15:24.586Z,5.35
2018-04-01T12:15:38.565Z,5.93
2018-04-01T12:15:51.540Z,5.57
2018-04-01T12:16:04.518Z,5.30
2018-04-01T12:16:18.333Z,5.40
2018-04-01T12:16:31.447Z,5.57
2018-04-01T12:16:45.201Z,5.62
2018-04-01T12:17:00.584Z,5.40
2018-04-01T12:17:36.293Z,5.15
2018-04-01T12:17:49.300Z,5.47
2018-04-01T12:18:03.031Z,5.53
2018-04-01T12:18:16.015Z,5.40
2018-04-01T12:18:29.760Z,5.43
2018-04-01T12:21:23.977Z,5.13
2018-04-01T12:23:51.985Z,5.00
2018-04-01T12:26:19.973Z,5.40
2018-04-01T12:28:47.979Z,5.03
2018-04-01T12:31:15.973Z,7.30
2018-04-01T12:33:44.813Z,6.47
2018-04-01T12:36:13.570Z,8.40
2018-04-01T12:38:41.577Z,7.03
2018-04-01T12:41:10.352Z,7.00
2018-04-01T12:43:38.349Z,5.83
2018-04-01T12:46:07.112Z,5.80
2018-04-01T12:48:35.119Z,5.30
2018-04-01T12:51:03.144Z,5.27
2018-04-01T12:53:31.146Z,5.10
2018-04-01T12:55:59.924Z,5.17
2018-04-01T12:58:28.676Z,5.10
2018-04-01T13:00:56.671Z,4.73
2018-04-01T13:03:24.681Z,5.30
2018-04-01T13:05:52.680Z,4.63
2018-04-01T13:08:20.683Z,4.63
2018-04-01T13:10:48.694Z,4.57
2018-04-01T13:13:16.695Z,4.40
2018-04-01T13:15:44.690Z,4.20
2018-04-01T13:18:12.700Z,4.13
2018-04-01T13:20:44.128Z,4.60
2018-04-01T13:23:12.897Z,4.83
2018-04-01T13:25:40.898Z,4.40
2018-04-01T13:28:09.672Z,4.40
2018-04-01T13:30:38.454Z,4.03
2018-04-01T13:33:06.439Z,4.17
2018-04-01T13:35:34.442Z,4.40
2018-04-01T13:38:02.443Z,4.27
2018-04-01T13:40:30.439Z,4.10
2018-04-01T13:42:58.442Z,3.37
2018-04-01T13:45:26.439Z,4.17
2018-04-01T13:47:54.432Z,4.03
2018-04-01T13:50:35.689Z,4.00
2018-04-01T13:53:03.695Z,3.60
2018-04-01T13:55:31.695Z,3.87
2018-04-01T13:58:00.460Z,3.20
2018-04-01T14:00:28.471Z,3.43
2018-04-01T14:02:56.471Z,3.47
2018-04-01T14:05:24.465Z,3.77
2018-04-01T14:07:52.460Z,3.43
2018-04-01T14:10:21.247Z,3.60
2018-04-01T14:12:50.016Z,3.30
2018-04-01T14:15:18.012Z,3.30
2018-04-01T14:17:46.768Z,3.30
2018-04-01T14:20:14.853Z,2.73
2018-04-01T14:22:42.836Z,3.47
2018-04-01T14:25:11.603Z,2.80
2018-04-01T14:27:40.461Z,3.13
2018-04-01T14:30:08.423Z,3.10
2018-04-01T14:32:36.423Z,3.07
2018-04-01T14:35:04.417Z,3.30
2018-04-01T14:37:33.176Z,3.30
2018-04-01T14:40:01.179Z,3.00
2018-04-01T14:42:29.935Z,3.07
2018-04-01T14:44:57.955Z,3.30
2018-04-01T14:50:33.844Z,3.10
2018-04-01T14:53:01.859Z,3.20
2018-04-01T14:55:29.847Z,3.00
2018-04-01T14:57:58.610Z,3.10
2018-04-01T15:00:26.616Z,3.13
2018-04-01T15:02:55.396Z,3.20
2018-04-01T15:05:23.393Z,3.00
2018-04-01T15:07:51.392Z,2.93
2018-04-01T15:10:19.394Z,3.13
2018-04-01T15:12:47.405Z,3.23
2018-04-01T15:15:15.415Z,3.00
2018-04-01T15:17:43.415Z,3.20
2018-04-01T15:20:11.424Z,3.73
2018-04-01T15:22:39.419Z,3.20
2018-04-01T15:25:07.412Z,3.67
2018-04-01T15:27:36.194Z,3.20
2018-04-01T15:30:04.192Z,3.10
2018-04-01T15:32:32.960Z,3.50
2018-04-01T15:35:00.965Z,3.30
2018-04-01T15:37:29.722Z,3.00
2018-04-01T15:39:57.720Z,3.27
2018-04-01T15:42:26.496Z,3.13
2018-04-01T15:44:54.488Z,3.10
2018-04-01T15:47:23.251Z,3.10
2018-04-01T15:49:51.251Z,3.07
2018-04-01T15:52:19.284Z,2.87
2018-04-01T15:54:47.265Z,3.03
2018-04-01T15:57:16.042Z,3.20
2018-04-01T15:59:44.036Z,2.83
2018-04-01T16:02:12.811Z,2.83
2018-04-01T16:04:41.596Z,3.13
2018-04-01T16:07:10.359Z,2.80
2018-04-01T16:09:38.350Z,3.00
2018-04-01T16:12:06.351Z,3.10
2018-04-01T16:14:35.117Z,2.50
2018-04-01T16:17:16.612Z,3.23
2018-04-01T16:19:45.364Z,3.20
2018-04-01T16:22:13.401Z,3.50
2018-04-01T16:24:49.714Z,3.00
2018-04-01T16:27:18.251Z,3.57
2018-04-01T18:40:46.519Z,5.47
2018-04-01T18:43:14.604Z,6.47
2018-04-01T18:45:42.649Z,5.47
2018-04-01T18:48:11.494Z,5.20
2018-04-01T18:50:39.843Z,5.73
2018-04-01T18:53:08.954Z,5.53
2018-04-01T18:55:37.177Z,5.47
2018-04-01T18:58:05.965Z,5.60
2018-04-01T19:00:35.015Z,5.43
2018-04-01T19:03:03.036Z,5.80
2018-04-01T19:05:31.819Z,6.00
2018-04-01T19:07:59.832Z,5.57
2018-04-01T19:10:27.855Z,6.40
2018-04-01T19:12:55.848Z,5.73
2018-04-01T19:15:23.867Z,6.30
2018-04-01T19:17:52.640Z,6.60
2018-04-01T19:20:23.391Z,6.53
2018-04-01T19:22:52.428Z,8.00
2018-04-01T19:25:21.478Z,7.00
2018-04-01T19:27:50.517Z,7.60
2018-04-01T19:32:43.978Z,8.07
2018-04-01T19:35:14.029Z,8.43
2018-04-01T19:37:44.393Z,8.17
2018-04-01T19:40:14.260Z,7.87
2018-04-01T19:42:44.088Z,8.63
2018-04-01T19:45:13.902Z,8.30
2018-04-01T19:47:43.731Z,8.07
2018-04-01T19:50:13.547Z,7.93
2018-04-01T19:52:43.354Z,8.13
2018-04-01T19:55:13.171Z,7.70
2018-04-01T19:57:43.156Z,7.93
2018-04-01T20:00:13.738Z,7.97
2018-04-01T20:02:43.547Z,8.97
2018-04-01T20:05:13.362Z,10.27
2018-04-01T20:07:43.172Z,9.77
2018-04-01T20:10:13.017Z,10.17
2018-04-01T20:12:43.598Z,10.80
2018-04-01T20:15:13.435Z,10.90
2018-04-01T20:17:43.258Z,11.60
2018-04-01T20:20:13.071Z,11.17
2018-04-01T20:22:42.892Z,11.33
2018-04-01T20:25:12.707Z,12.23
2018-04-01T20:27:42.532Z,11.90
2018-04-01T20:30:12.342Z,12.73
2018-04-01T20:32:43.185Z,12.87
2018-04-01T20:35:33.214Z,12.20
2018-04-01T20:38:03.023Z,12.20
2018-04-01T20:40:32.829Z,16.50
2018-04-01T20:43:02.658Z,15.73
2018-04-01T20:45:32.478Z,15.07
2018-04-01T20:48:02.357Z,15.07
2018-04-01T20:50:32.217Z,14.97
2018-04-01T20:53:02.039Z,15.07
2018-04-01T20:55:31.863Z,15.40
2018-04-01T20:58:01.680Z,14.63
2018-04-01T21:00:31.486Z,15.27
2018-04-01T21:03:01.465Z,14.73
2018-04-01T21:05:31.300Z,14.73
2018-04-01T21:08:01.160Z,15.13
2018-04-01T21:10:31.730Z,15.53
2018-04-01T21:13:01.559Z,14.90
2018-04-01T21:15:31.375Z,14.17
2018-04-01T21:18:01.197Z,14.47
2018-04-01T21:20:31.775Z,14.63
2018-04-01T21:23:01.595Z,14.67
2018-04-01T21:25:31.394Z,15.90
2018-04-01T21:31:09.195Z,14.57
2018-04-01T21:33:39.789Z,14.80
2018-04-01T21:36:09.608Z,13.57
2018-04-01T21:38:39.426Z,15.10
2018-04-01T21:41:09.248Z,14.40
2018-04-01T21:43:39.180Z,14.17
2018-04-01T21:46:09.762Z,13.97
2018-04-01T21:48:39.587Z,14.03
2018-04-01T21:51:09.402Z,14.77
2018-04-01T21:53:39.233Z,14.27
2018-04-01T21:56:09.047Z,13.83
2018-04-01T21:58:38.860Z,14.40
2018-04-01T22:01:09.063Z,14.80
2018-04-01T22:03:39.922Z,15.23
2018-04-01T22:06:09.768Z,15.60
2018-04-01T22:08:39.679Z,14.47
2018-04-01T22:11:09.491Z,13.53
2018-04-01T22:13:39.329Z,13.90
2018-04-01T22:16:09.174Z,14.50
2018-04-01T22:18:39.010Z,14.37
2018-04-01T22:21:09.591Z,14.03
2018-04-01T22:23:40.126Z,15.00
2018-04-01T22:26:17.830Z,14.20
2018-04-01T22:28:47.780Z,14.10
2018-04-01T22:31:17.593Z,14.60
2018-04-01T22:33:47.452Z,14.70
2018-04-01T22:36:17.276Z,14.30
2018-04-01T22:38:47.106Z,13.93
2018-04-01T22:41:16.918Z,13.83
2018-04-01T22:43:46.753Z,13.77
2018-04-01T22:46:16.582Z,14.57
2018-04-01T22:48:47.173Z,14.67
2018-04-01T22:51:16.986Z,14.57
2018-04-01T22:53:46.839Z,14.40
2018-04-01T22:56:17.944Z,14.37
2018-04-01T22:58:50.309Z,14.77
2018-04-01T23:01:20.137Z,14.80
2018-04-01T23:03:55.898Z,14.83
